Flight Track Log - Related Links

Times and Time Zones

All times are in EDT time to prevent confusion due to time zone crossing. See the UAL1701 flight status page for this flight to view local times or setup timezone preferences in your user account.

Time Position Orientation Groundspeed Altitude Reporting Facility
EDT Latitude Longitude Course Direction KTS MPH feet Rate Location/Type
Sun 07:26:35 AM 40.7167 -74.1500 218° Southwest 165 190 1,200  Level New York TRACON
Sun 07:27:35 AM 40.7500 -74.1333 21° North 202 232 4,300 2,752 Climbing New York TRACON
Sun 07:29:00 AM 40.2621 -74.1627 194° South  Level FlightAware Approximate
Sun 07:30:00 AM 40.1497 -74.2000 180° South  Level FlightAware Approximate
Sun 07:31:00 AM 40.0423 -74.2333 180° South  Level FlightAware Approximate
Sun 07:32:00 AM 39.9400 -74.2934 218° Southwest  Level FlightAware Approximate
Sun 07:34:39 AM 40.2858 -74.1727 217° Southwest 350 403 23,400  Level FlightAware ADS-B (KPHL)
Sun 07:35:15 AM 40.1531 -74.2942 216° Southwest 363 418 24,000 486 Climbing FlightAware ADS-B (KPHL)
Sun 07:35:53 AM 40.0989 -74.3457 216° Southwest 360 414 24,000  Level FlightAware ADS-B (KWWD)
Sun 07:36:40 AM 40.0381 -74.4043 217° Southwest 358 412 24,000  Level FlightAware ADS-B (KPHL)
Sun 07:37:18 AM 39.9857 -74.4555 218° Southwest 350 403 24,000  Level FlightAware ADS-B (KWWD)
Sun 07:37:55 AM 39.9373 -74.5023 217° Southwest 358 412 24,000 76 Level FlightAware ADS-B (KWWD)
Sun 07:38:37 AM 39.8815 -74.5562 217° Southwest 362 417 24,100 1,012 Climbing FlightAware ADS-B (KWWD)
Sun 07:39:18 AM 39.8261 -74.6096 217° Southwest 367 422 25,400 1,944 Climbing FlightAware ADS-B (KWWD)
Sun 07:39:48 AM 39.7847 -74.6494 217° Southwest 365 420 26,400 1,826 Climbing FlightAware ADS-B (KWWD)
Sun 07:40:27 AM 39.7357 -74.6965 217° Southwest 375 432 27,500 1,886 Climbing FlightAware ADS-B (KPHL)
Sun 07:40:58 AM 39.6870 -74.7432 217° Southwest 369 425 28,600 1,859 Climbing FlightAware ADS-B (KWWD)
Sun 07:41:38 AM 39.6308 -74.7971 217° Southwest 379 436 29,700 1,595 Climbing FlightAware ADS-B (KWWD)
Sun 07:42:17 AM 39.5760 -74.8494 216° Southwest 381 438 30,700 1,629 Climbing FlightAware ADS-B (KWWD)
Sun 07:42:48 AM 39.5319 -74.8914 217° Southwest 383 441 31,600 1,457 Climbing FlightAware ADS-B (KWWD)
Sun 07:43:27 AM 39.4871 -74.9342 216° Southwest 388 447 32,400 1,304 Climbing FlightAware ADS-B (KPHL)
Sun 07:43:57 AM 39.4530 -74.9665 216° Southwest 388 447 33,100 1,368 Climbing FlightAware ADS-B (KPHL)
Sun 07:44:24 AM 39.3930 -75.0234 217° Southwest 383 441 33,700 844 Climbing FlightAware ADS-B (KWWD)
Sun 07:45:01 AM 39.3495 -75.0646 215° Southwest 392 451 34,000 250 Climbing FlightAware ADS-B (KPHL)
Sun 07:45:36 AM 39.3165 -75.0941 208° Southwest 403 464 34,000  Level FlightAware ADS-B (KPHL)
Sun 07:46:07 AM 39.2285 -75.1413 198° South 411 473 34,000  Level FlightAware ADS-B (KWWD)
Sun 07:46:14 AM 39.2334 -75.1393 198° South 418 481 34,000  Level FlightAware ADS-B (LFML / MRS)
Sun 07:46:51 AM 39.1482 -75.1751 198° South 418 481 34,000  Level FlightAware ADS-B (KPHL)
Sun 07:46:56 AM 39.1374 -75.1796 199° South 411 473 34,000  Level FlightAware ADS-B (KWWD)
Sun 07:47:15 AM 39.1031 -75.1943 198° South 422 486 34,000 774 Level FlightAware ADS-B (KWWD)
Sun 07:47:58 AM 39.0222 -75.2286 198° South 423 487 34,800 1,229 Climbing FlightAware ADS-B (KWWD)
Sun 07:48:38 AM 38.9490 -75.2594 198° South 423 487 35,700 398 Climbing FlightAware ADS-B (KWWD)
Sun 07:50:59 AM 38.6872 -75.3689 198° South 422 486 36,000 209 Climbing FlightAware ADS-B (KWWD)
Sun 07:51:30 AM 38.6293 -75.3931 198° South 427 491 36,300 727 Climbing FlightAware ADS-B (KWWD)
Sun 07:52:05 AM 38.5762 -75.4149 198° South 430 495 36,800 1,200 Climbing FlightAware ADS-B (EGAA / BFS)
Sun 07:52:35 AM 38.5081 -75.4431 198° South 422 486 37,600 1,161 Climbing FlightAware ADS-B (EGAA / BFS)
Sun 07:53:07 AM 38.4468 -75.4686 198° South 420 483 38,000 353 Climbing FlightAware ADS-B (KWWD)
Sun 07:53:43 AM 38.3839 -75.4948 198° South 420 483 38,000  Level FlightAware ADS-B (EGAA / BFS)
Sun 07:55:21 AM 38.2683 -75.5590 206° Southwest 410 472 38,000  Level FlightAware ADS-B (EGAA / BFS)
Sun 07:56:41 AM 38.0917 -75.6683 206° Southwest 417 480 38,000  Level Washington Center
Sun 07:57:42 AM 37.9917 -75.7367 208° Southwest 411 473 38,000  Level Washington Center
Sun 07:58:42 AM 37.8872 -75.7997 205° Southwest 411 473 38,000  Level Washington Center
Sun 07:59:43 AM 37.7808 -75.8597 204° Southwest 411 473 38,000  Level Washington Center
Sun 08:00:41 AM 37.6806 -75.9278 208° Southwest 411 473 38,000  Level Washington Center
Sun 08:01:42 AM 37.5761 -75.9928 206° Southwest 411 473 38,000  Level Washington Center
Sun 08:02:43 AM 37.4736 -76.0575 207° Southwest 411 473 38,000  Level Washington Center
Sun 08:03:43 AM 37.3711 -76.1197 206° Southwest 411 473 38,000  Level Washington Center
Sun 08:04:41 AM 37.2625 -76.1764 203° Southwest 411 473 38,000  Level Washington Center
Sun 08:05:41 AM 37.1619 -76.2381 206° Southwest 411 473 38,000  Level Washington Center
Sun 08:06:42 AM 37.0594 -76.2997 206° Southwest 405 466 38,000  Level Washington Center
Sun 08:07:42 AM 36.9567 -76.3611 206° Southwest 405 466 38,000  Level Washington Center
Sun 08:08:43 AM 36.8561 -76.4225 206° Southwest 405 466 38,000  Level Washington Center
Sun 08:09:43 AM 36.7556 -76.4864 207° Southwest 405 466 38,000  Level Washington Center
Sun 08:10:44 AM 36.6531 -76.5500 206° Southwest 405 466 38,000  Level Washington Center
Sun 08:11:43 AM 36.5481 -76.6133 206° Southwest 405 466 38,000  Level Washington Center
Sun 08:12:41 AM 36.4411 -76.6739 204° Southwest 405 466 38,000  Level Washington Center
Sun 08:13:42 AM 36.3258 -76.7419 205° Southwest 410 472 38,000  Level Washington Center
Sun 08:14:42 AM 36.2189 -76.8047 205° Southwest 420 483 38,000  Level Washington Center
Sun 08:15:43 AM 36.1139 -76.8647 205° Southwest 420 483 38,000  Level Washington Center
Sun 08:16:41 AM 36.0089 -76.9272 206° Southwest 420 483 38,000  Level Washington Center
Sun 08:17:41 AM 35.9039 -76.9894 206° Southwest 420 483 38,000  Level Washington Center
Sun 08:18:42 AM 35.7989 -77.0467 204° Southwest 420 483 38,000  Level Washington Center
Sun 08:19:43 AM 35.6958 -77.1086 206° Southwest 420 483 38,000  Level Washington Center
Sun 08:20:41 AM 35.5928 -77.1681 205° Southwest 414 476 38,000  Level Washington Center
Sun 08:21:42 AM 35.4856 -77.2297 205° Southwest 421 484 38,000  Level Washington Center
Sun 08:22:43 AM 35.3783 -77.2911 205° Southwest 426 490 38,000  Level Washington Center
Sun 08:23:43 AM 35.2708 -77.3525 205° Southwest 426 490 38,000  Level Washington Center
Sun 08:24:42 AM 35.1783 -77.4039 204° Southwest 421 484 38,000  Level Washington Center
Sun 08:25:42 AM 35.0731 -77.4675 206° Southwest 421 484 38,000  Level Washington Center
Sun 08:26:43 AM 34.9636 -77.5233 203° Southwest 421 484 38,000  Level Washington Center
Sun 08:27:41 AM 34.8461 -77.5608 195° South 431 496 38,000  Level Washington Center
Sun 08:28:41 AM 34.7308 -77.6011 196° South 437 503 38,000  Level Washington Center
Sun 08:29:42 AM 34.6133 -77.6436 197° South 437 503 38,000  Level Washington Center
Sun 08:30:42 AM 34.4958 -77.6836 196° South 437 503 38,000  Level Washington Center
Sun 08:31:43 AM 34.3803 -77.7208 195° South 437 503 38,000  Level Washington Center
Sun 08:33:26 AM 34.1692 -77.7903 195° South 452 520 38,000  Level Jacksonville Center
Sun 08:34:26 AM 34.0497 -77.8300 195° South 452 520 38,000  Level Jacksonville Center
Sun 08:35:26 AM 33.9325 -77.8692 195° South 446 513 38,000  Level Jacksonville Center
Sun 08:36:26 AM 33.7967 -77.9144 195° South 451 519 38,000  Level Jacksonville Center
Sun 08:37:26 AM 33.6936 -77.9503 196° South 451 519 38,000  Level Jacksonville Center
Sun 08:38:26 AM 33.5597 -77.9953 196° South 451 519 38,000  Level Jacksonville Center
Sun 08:39:26 AM 33.4422 -78.0314 194° South 451 519 38,000  Level Jacksonville Center
Sun 08:40:26 AM 33.3247 -78.0703 195° South 451 519 38,000  Level Jacksonville Center
Sun 08:41:26 AM 33.2075 -78.1089 195° South 451 519 38,000  Level Jacksonville Center
Sun 08:42:26 AM 33.0900 -78.1475 195° South 451 519 38,000  Level Jacksonville Center
Sun 08:43:26 AM 32.9722 -78.1833 194° South 451 519 38,000  Level Jacksonville Center
Sun 08:44:26 AM 32.8794 -78.2153 196° South 446 513 38,000  Level Jacksonville Center
Sun 08:45:26 AM 32.7414 -78.2644 197° South 440 506 38,000  Level Jacksonville Center
Sun 08:46:26 AM 32.6258 -78.3000 195° South 435 501 38,000  Level Jacksonville Center
Sun 08:47:26 AM 32.5103 -78.3356 195° South 429 494 38,000  Level Jacksonville Center
Sun 08:48:26 AM 32.3947 -78.3708 194° South 429 494 38,000  Level Jacksonville Center
Sun 08:49:26 AM 32.2917 -78.4078 197° South 436 502 38,000  Level Jacksonville Center
Sun 08:50:26 AM 32.1761 -78.4453 195° South 430 495 38,000  Level Jacksonville Center
Sun 08:51:26 AM 32.0625 -78.4803 195° South 430 495 38,000 -50 Level Jacksonville Center
Sun 08:52:26 AM 31.9489 -78.5175 196° South 430 495 37,900 -50 Descending Jacksonville Center
Sun 08:53:26 AM 31.8333 -78.5547 195° South 430 495 37,900 50 Level Jacksonville Center
Sun 08:54:26 AM 31.7200 -78.5942 196° South 430 495 38,000 50 Climbing Jacksonville Center
Sun 08:55:26 AM 31.6042 -78.6289 194° South 430 495 38,000  Level Jacksonville Center
Sun 08:56:26 AM 31.4928 -78.6633 195° South 435 501 38,000  Level Jacksonville Center
Sun 08:57:26 AM 31.3769 -78.7000 195° South 435 501 38,000  Level Jacksonville Center
Sun 08:58:26 AM 31.2614 -78.7369 195° South 430 495 38,000  Level Jacksonville Center
Sun 08:59:26 AM 31.1475 -78.7686 193° South 430 495 38,000  Level Jacksonville Center
Sun 09:00:26 AM 31.0339 -78.8050 195° South 430 495 38,000  Level Jacksonville Center
Sun 09:01:26 AM 30.9139 -78.8417 195° South 430 495 38,000  Level Jacksonville Center
Sun 09:02:26 AM 30.8044 -78.8778 196° South 430 495 38,000  Level Jacksonville Center
Sun 09:03:26 AM 30.6844 -78.9119 194° South 425 489 38,000  Level Jacksonville Center
Sun 09:04:26 AM 30.5708 -78.9481 195° South 432 497 38,000  Level Jacksonville Center
Sun 09:05:43 AM 30.4122 -78.9961 195° South 442 509 38,000  Level Miami Center
Sun 09:06:43 AM 30.2950 -79.0297 194° South 442 509 38,000  Level Miami Center
Sun 09:07:43 AM 30.1778 -79.0583 192° South 436 502 38,000  Level Miami Center
Sun 09:08:43 AM 30.0564 -79.0894 193° South 436 502 38,000  Level Miami Center
Sun 09:09:43 AM 29.9539 -79.1208 195° South 436 502 38,000  Level Miami Center
Sun 09:10:43 AM 29.8367 -79.1519 193° South 436 502 38,000  Level Miami Center
Sun 09:11:43 AM 29.7172 -79.1806 192° South 436 502 38,000  Level Miami Center
Sun 09:12:43 AM 29.5958 -79.2114 192° South 436 502 38,000  Level Miami Center
Sun 09:13:43 AM 29.4806 -79.2444 194° South 437 503 38,000  Level Miami Center
Sun 09:17:28 AM 29.0160 -79.3547 193° South 435 501 38,000  Level FlightAware ADS-B
Sun 09:19:16 AM 28.8035 -79.4084 193° South 431 496 38,000  Level FlightAware ADS-B
Sun 09:22:05 AM 28.4774 -79.4903 192° South 432 497 38,000  Level FlightAware ADS-B
Sun 09:22:37 AM 28.4125 -79.5065 193° South 433 498 38,000  Level FlightAware ADS-B
Sun 09:23:07 AM 28.3526 -79.5215 193° South 435 501 38,000  Level FlightAware ADS-B
Sun 09:23:47 AM 28.2754 -79.5407 192° South 437 503 38,000 -202 Level FlightAware ADS-B
Sun 09:24:36 AM 28.1829 -79.5633 192° South 450 518 37,700 -532 Descending FlightAware ADS-B
Sun 09:25:06 AM 28.1145 -79.5799 192° South 456 525 37,300 -943 Descending FlightAware ADS-B
Sun 09:25:46 AM 28.0304 -79.6004 191° South 464 534 36,600 -1,319 Descending FlightAware ADS-B
Sun 09:26:37 AM 27.9285 -79.6087 181° South 482 555 35,300 -1,043 Descending FlightAware ADS-B
Sun 09:27:18 AM 27.8309 -79.6109 181° South 456 525 35,000 -615 Descending FlightAware ADS-B
Sun 09:27:55 AM 27.7533 -79.6131 182° South 439 505 34,500 -1,714 Descending FlightAware ADS-B
Sun 09:28:28 AM 27.6893 -79.6152 182° South 444 511 33,000 -1,429 Descending FlightAware ADS-B
Sun 09:28:58 AM 27.6254 -79.6168 181° South 439 505 33,000 -429 Level FlightAware ADS-B
Sun 09:29:38 AM 27.5409 -79.6191 181° South 471 542 32,500 -1,629 Descending FlightAware ADS-B
Sun 09:30:08 AM 27.4759 -79.6208 181° South 470 541 31,100 -2,522 Descending FlightAware ADS-B
Sun 09:30:47 AM 27.3928 -79.6229 181° South 460 529 29,600 -2,400 Descending FlightAware ADS-B
Sun 09:31:18 AM 27.3268 -79.6245 181° South 456 525 28,300 -2,486 Descending FlightAware ADS-B
Sun 09:31:57 AM 27.2443 -79.6266 181° South 449 517 26,700 -2,522 Descending FlightAware ADS-B
Sun 09:32:27 AM 27.1883 -79.6280 181° South 444 511 25,400 -2,471 Descending FlightAware ADS-B
Sun 09:33:05 AM 27.1034 -79.6302 181° South 435 501 23,900 -2,143 Descending FlightAware ADS-B
Sun 09:33:37 AM 27.0400 -79.6319 181° South 423 487 22,900 -1,902 Descending FlightAware ADS-B
Sun 09:34:27 AM 26.9451 -79.6342 182° South 408 470 21,300 -2,333 Descending FlightAware ADS-B
Sun 09:35:43 AM 26.8097 -79.6589 182° South 380 437 18,000 -2,476 Descending Miami Center
Sun 09:36:50 AM 26.7064 -79.7053 202° Southwest 359 413 15,400 -2,750 Descending Miami Center
Sun 09:37:43 AM 26.6369 -79.7386 203° Southwest 356 410 12,500 -3,443 Descending Miami Center
Sun 09:37:51 AM 26.6114 -79.7519 205° Southwest 353 406 11,900 -2,900 Descending Miami Center
Sun 09:38:43 AM 26.5356 -79.7872 203° Southwest 356 410 9,600 -2,656 Descending Miami Center
Sun 09:38:52 AM 26.5189 -79.7939 200° South 352 405 9,200 -1,600 Descending Miami Center
Sun 09:39:43 AM 26.4617 -79.8225 204° Southwest 342 394 8,000 -1,161 Descending Miami Center
Sun 09:39:54 AM 26.4367 -79.8311 197° South 314 361 8,000 -100 Level Miami Center
Sun 09:40:43 AM 26.3794 -79.8622 206° Southwest 303 349 7,900 -295 Descending Miami Center
Sun 09:40:55 AM 26.3689 -79.8711 217° Southwest 273 314 7,700 -1,300 Descending Miami Center
Sun 09:41:43 AM 26.3283 -79.9119 222° Southwest 280 322 6,600 -1,433 Descending Miami Center
Sun 09:42:02 AM 26.3028 -79.9367 221° Southwest 266 306 6,100 -1,600 Descending Miami Center
Sun 09:42:43 AM 26.2644 -79.9706 218° Southwest 275 316 5,000 -1,082 Descending Miami Center
Sun 09:43:03 AM 26.2453 -79.9886 220° Southwest 265 305 5,000 -400 Level Miami Center
Sun 09:43:43 AM 26.2056 -79.9897 181° South 234 269 4,600 -545 Descending Miami Center
Sun 09:43:58 AM 26.1828 -79.9844 168° South 236 272 4,500 -700 Descending Miami Center
Sun 09:44:43 AM 26.1544 -79.9444 128° Southeast 203 234 3,900 -537 Descending Miami Center
Sun 09:45:05 AM 26.1550 -79.9167 89° East 253 291 3,900 -723 Level Miami Center
Sun 09:46:06 AM 26.1033 -79.8831 150° Southeast 218 251 2,900 -934 Descending Miami Center
Sun 09:47:07 AM 26.0731 -79.9308 235° Southwest 210 242 2,000 -462 Descending Miami Center
Sun 09:48:03 AM 26.0719 -79.9886 269° West 183 211 2,000 -195 Level Miami Center
Sun 09:49:10 AM 26.0728 -80.0486 271° West 168 193 1,600 -563 Descending Miami Center
Sun 09:50:11 AM 26.0739 -80.0950 272° West 144 166 800 -787 Descending Miami Center

Login

Don't have an account? Register now (free) for customized features, flight alerts, and more!